sensor_id;sensor_type;location;lat;lon;timestamp;pressure;altitude;pressure_sealevel;temperature;humidity
63204;BME280;49297;43.210;27.914;2023-05-17T00:00:30;100899.97;;;17.02;61.82
63204;BME280;49297;43.210;27.914;2023-05-17T00:03:04;100905.50;;;17.01;61.81
63204;BME280;49297;43.210;27.914;2023-05-17T00:05:32;100909.81;;;17.02;61.77
63204;BME280;49297;43.210;27.914;2023-05-17T00:07:59;100899.66;;;16.97;61.98
63204;BME280;49297;43.210;27.914;2023-05-17T00:10:24;100907.69;;;16.97;62.34
63204;BME280;49297;43.210;27.914;2023-05-17T00:12:50;100910.84;;;17.01;62.24
63204;BME280;49297;43.210;27.914;2023-05-17T00:15:16;100909.81;;;17.02;62.10
63204;BME280;49297;43.210;27.914;2023-05-17T00:17:43;100914.19;;;17.03;62.11
63204;BME280;49297;43.210;27.914;2023-05-17T00:20:09;100925.69;;;17.03;62.04
63204;BME280;49297;43.210;27.914;2023-05-17T00:22:36;100934.22;;;16.99;62.31
63204;BME280;49297;43.210;27.914;2023-05-17T00:25:02;100923.25;;;16.93;62.16
63204;BME280;49297;43.210;27.914;2023-05-17T00:27:28;100932.44;;;16.91;62.52
63204;BME280;49297;43.210;27.914;2023-05-17T00:29:54;100928.94;;;16.82;63.11
63204;BME280;49297;43.210;27.914;2023-05-17T00:32:27;100924.44;;;16.83;62.89
63204;BME280;49297;43.210;27.914;2023-05-17T00:34:53;100921.59;;;16.84;62.86
63204;BME280;49297;43.210;27.914;2023-05-17T00:37:21;100926.59;;;16.87;63.10
63204;BME280;49297;43.210;27.914;2023-05-17T00:39:47;100912.41;;;16.87;62.87
63204;BME280;49297;43.210;27.914;2023-05-17T00:42:13;100915.56;;;16.90;62.79
63204;BME280;49297;43.210;27.914;2023-05-17T00:44:39;100904.69;;;16.92;62.83
63204;BME280;49297;43.210;27.914;2023-05-17T00:47:06;100919.56;;;16.94;62.70
63204;BME280;49297;43.210;27.914;2023-05-17T00:49:34;100913.38;;;16.94;62.98
63204;BME280;49297;43.210;27.914;2023-05-17T00:52:00;100907.69;;;16.97;62.80
63204;BME280;49297;43.210;27.914;2023-05-17T00:54:28;100905.84;;;16.98;62.49
63204;BME280;49297;43.210;27.914;2023-05-17T00:56:56;100898.81;;;16.97;62.73
63204;BME280;49297;43.210;27.914;2023-05-17T00:59:25;100887.28;;;16.96;62.54
63204;BME280;49297;43.210;27.914;2023-05-17T01:01:51;100881.13;;;16.96;62.45
63204;BME280;49297;43.210;27.914;2023-05-17T01:04:19;100887.28;;;16.96;62.27
63204;BME280;49297;43.210;27.914;2023-05-17T01:06:48;100878.31;;;16.89;62.13
63204;BME280;49297;43.210;27.914;2023-05-17T01:09:16;100869.81;;;16.85;62.01
63204;BME280;49297;43.210;27.914;2023-05-17T01:20:18;100826.03;;;16.86;61.41
63204;BME280;49297;43.210;27.914;2023-05-17T01:28:23;100799.13;;;16.80;61.57
63204;BME280;49297;43.210;27.914;2023-05-17T01:30:52;100798.47;;;16.78;61.49
63204;BME280;49297;43.210;27.914;2023-05-17T01:33:19;100791.75;;;16.82;61.35
63204;BME280;49297;43.210;27.914;2023-05-17T01:35:47;100794.28;;;16.83;61.14
63204;BME280;49297;43.210;27.914;2023-05-17T01:38:13;100793.09;;;16.86;61.09
63204;BME280;49297;43.210;27.914;2023-05-17T01:40:47;100774.84;;;16.89;60.44
63204;BME280;49297;43.210;27.914;2023-05-17T01:43:23;100772.16;;;16.89;59.69
63204;BME280;49297;43.210;27.914;2023-05-17T01:46:10;100769.50;;;16.89;58.77
63204;BME280;49297;43.210;27.914;2023-05-17T01:48:39;100775.69;;;16.90;58.27
63204;BME280;49297;43.210;27.914;2023-05-17T01:51:16;100767.94;;;16.95;58.58
63204;BME280;49297;43.210;27.914;2023-05-17T01:53:47;100746.38;;;16.97;58.09
63204;BME280;49297;43.210;27.914;2023-05-17T01:56:27;100740.56;;;16.93;58.08
63204;BME280;49297;43.210;27.914;2023-05-17T01:58:55;100729.69;;;16.94;57.94
63204;BME280;49297;43.210;27.914;2023-05-17T02:01:23;100727.84;;;16.95;57.88
63204;BME280;49297;43.210;27.914;2023-05-17T02:03:51;100712.47;;;16.97;57.34
63204;BME280;49297;43.210;27.914;2023-05-17T02:06:17;100707.78;;;16.99;57.18
63204;BME280;49297;43.210;27.914;2023-05-17T02:08:43;100703.59;;;16.97;56.39
63204;BME280;49297;43.210;27.914;2023-05-17T02:11:10;100709.81;;;16.97;56.21
63204;BME280;49297;43.210;27.914;2023-05-17T02:13:37;100724.28;;;17.03;55.90
63204;BME280;49297;43.210;27.914;2023-05-17T02:16:03;100718.38;;;17.07;56.49
63204;BME280;49297;43.210;27.914;2023-05-17T02:18:29;100712.50;;;17.12;56.16
63204;BME280;49297;43.210;27.914;2023-05-17T02:20:55;100725.88;;;17.12;56.34
63204;BME280;49297;43.210;27.914;2023-05-17T02:23:21;100730.22;;;17.13;55.64
63204;BME280;49297;43.210;27.914;2023-05-17T02:25:50;100744.25;;;17.15;55.54
63204;BME280;49297;43.210;27.914;2023-05-17T02:28:16;100744.72;;;17.19;55.04
63204;BME280;49297;43.210;27.914;2023-05-17T02:30:42;100744.34;;;17.22;55.11
63204;BME280;49297;43.210;27.914;2023-05-17T02:33:08;100743.16;;;17.24;54.75
63204;BME280;49297;43.210;27.914;2023-05-17T02:35:34;100755.34;;;17.27;54.66
63204;BME280;49297;43.210;27.914;2023-05-17T02:38:06;100766.50;;;17.30;54.79
63204;BME280;49297;43.210;27.914;2023-05-17T02:40:34;100776.22;;;17.31;55.04
63204;BME280;49297;43.210;27.914;2023-05-17T02:43:00;100779.34;;;17.35;54.88
63204;BME280;49297;43.210;27.914;2023-05-17T02:45:26;100775.84;;;17.35;54.60
63204;BME280;49297;43.210;27.914;2023-05-17T02:47:53;100783.75;;;17.28;54.72
63204;BME280;49297;43.210;27.914;2023-05-17T02:50:26;100789.75;;;17.30;54.65
63204;BME280;49297;43.210;27.914;2023-05-17T02:52:52;100798.44;;;17.32;54.73
63204;BME280;49297;43.210;27.914;2023-05-17T02:55:18;100795.94;;;17.30;55.00
63204;BME280;49297;43.210;27.914;2023-05-17T02:57:44;100777.88;;;17.33;55.32
63204;BME280;49297;43.210;27.914;2023-05-17T03:00:11;100783.03;;;17.34;55.47
63204;BME280;49297;43.210;27.914;2023-05-17T03:02:42;100777.88;;;17.33;55.80
63204;BME280;49297;43.210;27.914;2023-05-17T03:05:10;100779.06;;;17.30;55.50
63204;BME280;49297;43.210;27.914;2023-05-17T03:07:36;100762.53;;;17.26;55.71
63204;BME280;49297;43.210;27.914;2023-05-17T03:10:04;100766.22;;;17.25;55.48
63204;BME280;49297;43.210;27.914;2023-05-17T03:12:30;100782.94;;;17.27;55.54
63204;BME280;49297;43.210;27.914;2023-05-17T03:14:56;100806.16;;;17.27;55.26
63204;BME280;49297;43.210;27.914;2023-05-17T03:17:22;100823.06;;;17.27;55.33
63204;BME280;49297;43.210;27.914;2023-05-17T03:19:50;100819.84;;;17.32;55.20
63204;BME280;49297;43.210;27.914;2023-05-17T03:22:16;100814.97;;;17.36;54.98
63204;BME280;49297;43.210;27.914;2023-05-17T03:24:42;100833.34;;;17.39;53.85
63204;BME280;49297;43.210;27.914;2023-05-17T03:27:08;100847.19;;;17.42;53.91
63204;BME280;49297;43.210;27.914;2023-05-17T03:29:33;100824.59;;;17.45;54.63
63204;BME280;49297;43.210;27.914;2023-05-17T03:31:59;100809.22;;;17.47;55.03
63204;BME280;49297;43.210;27.914;2023-05-17T03:34:27;100821.72;;;17.46;54.58
63204;BME280;49297;43.210;27.914;2023-05-17T03:36:53;100830.41;;;17.48;54.78
63204;BME280;49297;43.210;27.914;2023-05-17T03:39:20;100821.56;;;17.48;54.77
63204;BME280;49297;43.210;27.914;2023-05-17T03:41:46;100815.56;;;17.46;54.77
63204;BME280;49297;43.210;27.914;2023-05-17T03:44:18;100810.03;;;17.47;54.70
63204;BME280;49297;43.210;27.914;2023-05-17T03:46:45;100806.72;;;17.45;54.82
63204;BME280;49297;43.210;27.914;2023-05-17T03:49:11;100781.69;;;17.38;55.07
63204;BME280;49297;43.210;27.914;2023-05-17T03:51:37;100775.00;;;17.34;54.99
63204;BME280;49297;43.210;27.914;2023-05-17T03:54:05;100773.34;;;17.33;54.80
63204;BME280;49297;43.210;27.914;2023-05-17T03:56:31;100776.03;;;17.33;54.15
63204;BME280;49297;43.210;27.914;2023-05-17T03:59:05;100766.44;;;17.39;53.78
63204;BME280;49297;43.210;27.914;2023-05-17T04:01:33;100762.66;;;17.33;54.38
63204;BME280;49297;43.210;27.914;2023-05-17T04:03:59;100773.41;;;17.25;55.55
63204;BME280;49297;43.210;27.914;2023-05-17T04:06:28;100792.78;;;17.27;56.34
63204;BME280;49297;43.210;27.914;2023-05-17T04:08:54;100805.16;;;17.28;56.56
63204;BME280;49297;43.210;27.914;2023-05-17T04:11:21;100819.38;;;17.28;56.44
63204;BME280;49297;43.210;27.914;2023-05-17T04:13:49;100822.53;;;17.32;56.26
63204;BME280;49297;43.210;27.914;2023-05-17T04:16:15;100835.53;;;17.35;56.10
63204;BME280;49297;43.210;27.914;2023-05-17T04:18:40;100839.53;;;17.39;55.89
63204;BME280;49297;43.210;27.914;2023-05-17T04:21:07;100852.06;;;17.39;55.48
63204;BME280;49297;43.210;27.914;2023-05-17T04:23:35;100852.44;;;17.36;55.49
63204;BME280;49297;43.210;27.914;2023-05-17T04:26:02;100858.25;;;17.39;55.38
63204;BME280;49297;43.210;27.914;2023-05-17T04:28:29;100864.06;;;17.43;55.49
63204;BME280;49297;43.210;27.914;2023-05-17T04:30:56;100858.84;;;17.49;55.57
63204;BME280;49297;43.210;27.914;2023-05-17T04:33:22;100858.13;;;17.56;55.38
63204;BME280;49297;43.210;27.914;2023-05-17T04:35:49;100860.28;;;17.60;55.16
63204;BME280;49297;43.210;27.914;2023-05-17T04:38:16;100857.41;;;17.62;55.11
63204;BME280;49297;43.210;27.914;2023-05-17T04:40:42;100859.91;;;17.63;55.14
63204;BME280;49297;43.210;27.914;2023-05-17T04:43:08;100859.34;;;17.68;55.41
63204;BME280;49297;43.210;27.914;2023-05-17T04:45:34;100851.16;;;17.69;56.27
63204;BME280;49297;43.210;27.914;2023-05-17T04:48:02;100850.16;;;17.70;56.83
63204;BME280;49297;43.210;27.914;2023-05-17T04:50:29;100853.66;;;17.71;56.96
63204;BME280;49297;43.210;27.914;2023-05-17T04:52:55;100864.34;;;17.71;57.24
63204;BME280;49297;43.210;27.914;2023-05-17T04:55:21;100863.72;;;17.69;56.84
63204;BME280;49297;43.210;27.914;2023-05-17T04:57:47;100872.75;;;17.68;57.13
63204;BME280;49297;43.210;27.914;2023-05-17T05:00:13;100877.44;;;17.66;56.53
63204;BME280;49297;43.210;27.914;2023-05-17T05:02:47;100889.00;;;17.66;56.56
63204;BME280;49297;43.210;27.914;2023-05-17T05:05:19;100898.50;;;17.69;56.28
63204;BME280;49297;43.210;27.914;2023-05-17T05:07:51;100900.53;;;17.67;55.72
63204;BME280;49297;43.210;27.914;2023-05-17T05:10:18;100903.41;;;17.65;55.66
63204;BME280;49297;43.210;27.914;2023-05-17T05:12:44;100891.19;;;17.63;55.80
63204;BME280;49297;43.210;27.914;2023-05-17T05:15:12;100896.53;;;17.63;55.55
63204;BME280;49297;43.210;27.914;2023-05-17T05:17:38;100894.88;;;17.62;55.69
63204;BME280;49297;43.210;27.914;2023-05-17T05:20:05;100897.22;;;17.65;56.03
63204;BME280;49297;43.210;27.914;2023-05-17T05:22:31;100906.91;;;17.66;55.79
63204;BME280;49297;43.210;27.914;2023-05-17T05:24:58;100904.22;;;17.66;55.88
63204;BME280;49297;43.210;27.914;2023-05-17T05:27:25;100897.41;;;17.63;55.89
63204;BME280;49297;43.210;27.914;2023-05-17T05:29:53;100890.34;;;17.62;56.09
63204;BME280;49297;43.210;27.914;2023-05-17T05:32:21;100887.50;;;17.64;55.96
63204;BME280;49297;43.210;27.914;2023-05-17T05:34:48;100881.34;;;17.63;55.92
63204;BME280;49297;43.210;27.914;2023-05-17T05:37:15;100876.81;;;17.64;56.31
63204;BME280;49297;43.210;27.914;2023-05-17T05:39:41;100878.09;;;17.68;56.15
63204;BME280;49297;43.210;27.914;2023-05-17T05:42:08;100878.56;;;17.72;56.16
63204;BME280;49297;43.210;27.914;2023-05-17T05:44:34;100881.72;;;17.75;56.12
63204;BME280;49297;43.210;27.914;2023-05-17T05:47:00;100871.13;;;17.82;55.34
63204;BME280;49297;43.210;27.914;2023-05-17T05:49:26;100869.59;;;17.87;54.77
63204;BME280;49297;43.210;27.914;2023-05-17T05:51:52;100873.38;;;17.93;54.62
63204;BME280;49297;43.210;27.914;2023-05-17T05:54:18;100882.38;;;18.00;54.42
63204;BME280;49297;43.210;27.914;2023-05-17T05:56:45;100882.28;;;18.08;54.39
63204;BME280;49297;43.210;27.914;2023-05-17T05:59:12;100893.09;;;18.15;53.06
63204;BME280;49297;43.210;27.914;2023-05-17T06:01:37;100904.94;;;18.21;53.29
63204;BME280;49297;43.210;27.914;2023-05-17T06:04:04;100902.19;;;18.29;53.31
63204;BME280;49297;43.210;27.914;2023-05-17T06:06:30;100903.94;;;18.37;52.93
63204;BME280;49297;43.210;27.914;2023-05-17T06:08:57;100904.03;;;18.43;52.19
63204;BME280;49297;43.210;27.914;2023-05-17T06:11:25;100910.69;;;18.48;51.94
63204;BME280;49297;43.210;27.914;2023-05-17T06:13:51;100914.81;;;18.50;52.33
63204;BME280;49297;43.210;27.914;2023-05-17T06:16:17;100915.97;;;18.56;52.37
63204;BME280;49297;43.210;27.914;2023-05-17T06:18:44;100918.06;;;18.60;52.06
63204;BME280;49297;43.210;27.914;2023-05-17T06:21:11;100912.34;;;18.63;52.20
63204;BME280;49297;43.210;27.914;2023-05-17T06:23:40;100918.16;;;18.67;51.68
63204;BME280;49297;43.210;27.914;2023-05-17T06:26:07;100914.28;;;18.70;51.43
63204;BME280;49297;43.210;27.914;2023-05-17T06:28:36;100913.63;;;18.68;51.42
63204;BME280;49297;43.210;27.914;2023-05-17T06:31:02;100908.25;;;18.68;51.58
63204;BME280;49297;43.210;27.914;2023-05-17T06:33:28;100912.25;;;18.72;51.05
63204;BME280;49297;43.210;27.914;2023-05-17T06:35:55;100922.59;;;18.75;50.13
63204;BME280;49297;43.210;27.914;2023-05-17T06:38:22;100905.69;;;18.74;49.37
63204;BME280;49297;43.210;27.914;2023-05-17T06:40:54;100912.13;;;18.80;49.11
63204;BME280;49297;43.210;27.914;2023-05-17T06:43:22;100918.31;;;18.80;49.39
63204;BME280;49297;43.210;27.914;2023-05-17T06:45:48;100918.53;;;18.79;48.93
63204;BME280;49297;43.210;27.914;2023-05-17T06:48:14;100919.91;;;18.75;49.16
63204;BME280;49297;43.210;27.914;2023-05-17T06:50:40;100923.22;;;18.77;48.95
63204;BME280;49297;43.210;27.914;2023-05-17T06:53:09;100921.22;;;18.79;48.95
63204;BME280;49297;43.210;27.914;2023-05-17T06:55:35;100916.84;;;18.78;48.48
63204;BME280;49297;43.210;27.914;2023-05-17T06:58:01;100916.03;;;18.77;48.03
63204;BME280;49297;43.210;27.914;2023-05-17T07:00:27;100927.94;;;18.75;48.13
63204;BME280;49297;43.210;27.914;2023-05-17T07:02:53;100926.75;;;18.77;48.13
63204;BME280;49297;43.210;27.914;2023-05-17T07:05:21;100936.63;;;18.77;47.59
63204;BME280;49297;43.210;27.914;2023-05-17T07:07:48;100927.72;;;18.85;47.32
63204;BME280;49297;43.210;27.914;2023-05-17T07:10:14;100924.28;;;18.91;47.09
63204;BME280;49297;43.210;27.914;2023-05-17T07:12:41;100932.41;;;18.97;46.91
63204;BME280;49297;43.210;27.914;2023-05-17T07:15:07;100937.41;;;19.00;46.68
63204;BME280;49297;43.210;27.914;2023-05-17T07:17:33;100933.13;;;19.06;46.38
63204;BME280;49297;43.210;27.914;2023-05-17T07:20:01;100936.09;;;19.11;46.17
63204;BME280;49297;43.210;27.914;2023-05-17T07:22:27;100927.72;;;19.21;46.52
63204;BME280;49297;43.210;27.914;2023-05-17T07:24:52;100926.41;;;19.32;46.22
63204;BME280;49297;43.210;27.914;2023-05-17T07:27:18;100930.84;;;19.39;46.30
63204;BME280;49297;43.210;27.914;2023-05-17T07:29:44;100931.50;;;19.48;45.71
63204;BME280;49297;43.210;27.914;2023-05-17T07:32:11;100928.91;;;19.55;46.05
63204;BME280;49297;43.210;27.914;2023-05-17T07:34:36;100919.50;;;19.66;45.59
63204;BME280;49297;43.210;27.914;2023-05-17T07:37:03;100916.25;;;19.70;45.45
63204;BME280;49297;43.210;27.914;2023-05-17T07:39:29;100926.88;;;19.78;45.54
63204;BME280;49297;43.210;27.914;2023-05-17T07:41:56;100922.41;;;19.86;45.28
63204;BME280;49297;43.210;27.914;2023-05-17T07:44:23;100928.47;;;19.94;44.72
63204;BME280;49297;43.210;27.914;2023-05-17T07:46:49;100913.75;;;19.90;44.44
63204;BME280;49297;43.210;27.914;2023-05-17T07:49:16;100918.94;;;19.92;44.59
63204;BME280;49297;43.210;27.914;2023-05-17T07:51:42;100915.69;;;19.96;44.85
63204;BME280;49297;43.210;27.914;2023-05-17T07:54:08;100908.25;;;19.99;44.79
63204;BME280;49297;43.210;27.914;2023-05-17T07:56:34;100904.16;;;20.03;44.81
63204;BME280;49297;43.210;27.914;2023-05-17T07:59:00;100898.81;;;20.09;44.93
63204;BME280;49297;43.210;27.914;2023-05-17T08:01:26;100886.84;;;20.12;44.64
63204;BME280;49297;43.210;27.914;2023-05-17T08:03:53;100895.28;;;20.09;45.20
63204;BME280;49297;43.210;27.914;2023-05-17T08:06:22;100877.09;;;20.04;44.72
63204;BME280;49297;43.210;27.914;2023-05-17T08:08:48;100881.63;;;20.04;44.39
63204;BME280;49297;43.210;27.914;2023-05-17T08:11:21;100878.06;;;19.96;44.61
63204;BME280;49297;43.210;27.914;2023-05-17T08:13:47;100871.84;;;19.96;44.38
63204;BME280;49297;43.210;27.914;2023-05-17T08:16:13;100872.25;;;19.93;44.88
63204;BME280;49297;43.210;27.914;2023-05-17T08:18:40;100872.69;;;19.96;45.87
63204;BME280;49297;43.210;27.914;2023-05-17T08:21:09;100862.72;;;19.90;45.38
63204;BME280;49297;43.210;27.914;2023-05-17T08:23:36;100868.25;;;19.82;46.18
63204;BME280;49297;43.210;27.914;2023-05-17T08:26:04;100855.19;;;19.79;45.48
63204;BME280;49297;43.210;27.914;2023-05-17T08:28:30;100856.03;;;19.80;45.29
63204;BME280;49297;43.210;27.914;2023-05-17T08:30:59;100858.53;;;19.81;45.04
63204;BME280;49297;43.210;27.914;2023-05-17T08:33:26;100858.47;;;19.74;46.24
63204;BME280;49297;43.210;27.914;2023-05-17T08:35:51;100865.03;;;19.72;47.14
63204;BME280;49297;43.210;27.914;2023-05-17T08:38:22;100866.53;;;19.74;47.38
63204;BME280;49297;43.210;27.914;2023-05-17T08:40:54;100866.31;;;19.76;47.30
63204;BME280;49297;43.210;27.914;2023-05-17T08:43:23;100869.19;;;19.74;46.88
63204;BME280;49297;43.210;27.914;2023-05-17T08:45:50;100870.25;;;19.73;47.56
63204;BME280;49297;43.210;27.914;2023-05-17T08:48:17;100859.50;;;19.73;48.13
63204;BME280;49297;43.210;27.914;2023-05-17T08:50:44;100864.66;;;19.75;48.41
63204;BME280;49297;43.210;27.914;2023-05-17T08:53:10;100858.47;;;19.74;48.42
63204;BME280;49297;43.210;27.914;2023-05-17T08:55:38;100865.94;;;19.79;47.35
63204;BME280;49297;43.210;27.914;2023-05-17T08:58:05;100871.56;;;19.84;47.89
63204;BME280;49297;43.210;27.914;2023-05-17T09:00:32;100858.97;;;19.85;48.14
63204;BME280;49297;43.210;27.914;2023-05-17T09:03:05;100856.91;;;19.87;48.47
63204;BME280;49297;43.210;27.914;2023-05-17T09:05:31;100858.78;;;19.86;48.40
63204;BME280;49297;43.210;27.914;2023-05-17T09:07:58;100860.38;;;19.81;48.62
63204;BME280;49297;43.210;27.914;2023-05-17T09:10:24;100858.63;;;19.73;49.15
63204;BME280;49297;43.210;27.914;2023-05-17T09:12:51;100849.31;;;19.69;49.23
63204;BME280;49297;43.210;27.914;2023-05-17T09:15:17;100844.56;;;19.71;49.49
63204;BME280;49297;43.210;27.914;2023-05-17T09:17:53;100832.66;;;19.73;50.10
63204;BME280;49297;43.210;27.914;2023-05-17T09:20:23;100832.81;;;19.72;49.83
63204;BME280;49297;43.210;27.914;2023-05-17T09:22:50;100841.44;;;19.67;50.08
63204;BME280;49297;43.210;27.914;2023-05-17T09:25:26;100829.44;;;19.63;50.30
63204;BME280;49297;43.210;27.914;2023-05-17T09:27:52;100835.19;;;19.60;50.72
63204;BME280;49297;43.210;27.914;2023-05-17T09:30:18;100833.09;;;19.55;50.98
63204;BME280;49297;43.210;27.914;2023-05-17T09:32:46;100834.28;;;19.53;51.26
63204;BME280;49297;43.210;27.914;2023-05-17T09:35:14;100832.44;;;19.53;50.97
63204;BME280;49297;43.210;27.914;2023-05-17T09:37:40;100847.28;;;19.49;50.82
63204;BME280;49297;43.210;27.914;2023-05-17T09:40:07;100847.47;;;19.48;51.11
63204;BME280;49297;43.210;27.914;2023-05-17T09:42:34;100844.16;;;19.46;51.20
63204;BME280;49297;43.210;27.914;2023-05-17T09:45:01;100850.75;;;19.43;51.42
63204;BME280;49297;43.210;27.914;2023-05-17T09:47:30;100856.13;;;19.43;51.42
63204;BME280;49297;43.210;27.914;2023-05-17T09:50:00;100858.53;;;19.38;51.31
63204;BME280;49297;43.210;27.914;2023-05-17T09:52:28;100858.28;;;19.33;51.37
63204;BME280;49297;43.210;27.914;2023-05-17T09:54:57;100855.97;;;19.30;51.19
63204;BME280;49297;43.210;27.914;2023-05-17T09:57:26;100852.66;;;19.28;51.00
63204;BME280;49297;43.210;27.914;2023-05-17T09:59:56;100854.50;;;19.27;51.40
63204;BME280;49297;43.210;27.914;2023-05-17T10:02:26;100841.28;;;19.26;50.87
63204;BME280;49297;43.210;27.914;2023-05-17T10:04:54;100828.13;;;19.31;51.18
63204;BME280;49297;43.210;27.914;2023-05-17T10:07:21;100824.84;;;19.35;51.07
63204;BME280;49297;43.210;27.914;2023-05-17T10:09:53;100823.66;;;19.38;51.54
63204;BME280;49297;43.210;27.914;2023-05-17T10:12:21;100823.03;;;19.43;50.69
63204;BME280;49297;43.210;27.914;2023-05-17T10:14:47;100823.31;;;19.48;50.37
63204;BME280;49297;43.210;27.914;2023-05-17T10:17:13;100821.50;;;19.55;50.38
63204;BME280;49297;43.210;27.914;2023-05-17T10:19:40;100812.00;;;19.52;49.99
63204;BME280;49297;43.210;27.914;2023-05-17T10:22:07;100808.72;;;19.57;49.44
63204;BME280;49297;43.210;27.914;2023-05-17T10:24:34;100815.00;;;19.71;49.61
63204;BME280;49297;43.210;27.914;2023-05-17T10:27:03;100811.44;;;19.85;48.72
63204;BME280;49297;43.210;27.914;2023-05-17T10:29:31;100814.34;;;19.90;48.40
63204;BME280;49297;43.210;27.914;2023-05-17T10:31:57;100810.47;;;20.00;47.75
63204;BME280;49297;43.210;27.914;2023-05-17T10:34:23;100811.97;;;20.02;47.42
63204;BME280;49297;43.210;27.914;2023-05-17T10:36:50;100793.16;;;20.09;47.41
63204;BME280;49297;43.210;27.914;2023-05-17T10:39:18;100790.47;;;20.09;46.32
63204;BME280;49297;43.210;27.914;2023-05-17T10:41:49;100804.56;;;20.11;46.78
63204;BME280;49297;43.210;27.914;2023-05-17T10:44:16;100799.81;;;20.13;47.34
63204;BME280;49297;43.210;27.914;2023-05-17T10:46:55;100804.56;;;20.11;46.76
63204;BME280;49297;43.210;27.914;2023-05-17T10:49:25;100794.41;;;20.06;45.93
63204;BME280;49297;43.210;27.914;2023-05-17T10:52:11;100798.34;;;20.10;45.91
63204;BME280;49297;43.210;27.914;2023-05-17T10:54:39;100799.63;;;20.14;46.03
63204;BME280;49297;43.210;27.914;2023-05-17T10:57:05;100800.06;;;20.18;45.81
63204;BME280;49297;43.210;27.914;2023-05-17T10:59:31;100809.19;;;20.24;46.02
63204;BME280;49297;43.210;27.914;2023-05-17T11:02:02;100816.25;;;20.31;45.68
63204;BME280;49297;43.210;27.914;2023-05-17T11:04:38;100822.69;;;20.37;45.22
63204;BME280;49297;43.210;27.914;2023-05-17T11:07:20;100818.59;;;20.48;45.32
63204;BME280;49297;43.210;27.914;2023-05-17T11:12:15;100828.75;;;20.52;46.05
63204;BME280;49297;43.210;27.914;2023-05-17T11:17:18;100820.25;;;20.49;48.48
63204;BME280;49297;43.210;27.914;2023-05-17T11:19:53;100819.84;;;20.45;49.25
63204;BME280;49297;43.210;27.914;2023-05-17T11:22:35;100812.38;;;20.47;50.00
63204;BME280;49297;43.210;27.914;2023-05-17T11:25:05;100796.59;;;20.31;50.64
63204;BME280;49297;43.210;27.914;2023-05-17T11:27:36;100799.69;;;20.28;51.27
63204;BME280;49297;43.210;27.914;2023-05-17T11:30:15;100793.28;;;20.29;50.90
63204;BME280;49297;43.210;27.914;2023-05-17T11:32:45;100795.38;;;20.33;50.57
63204;BME280;49297;43.210;27.914;2023-05-17T11:35:11;100790.00;;;20.33;50.04
63204;BME280;49297;43.210;27.914;2023-05-17T11:37:37;100792.28;;;20.37;50.32
63204;BME280;49297;43.210;27.914;2023-05-17T11:40:03;100788.81;;;20.43;50.86
63204;BME280;49297;43.210;27.914;2023-05-17T11:42:31;100778.91;;;20.50;51.09
63204;BME280;49297;43.210;27.914;2023-05-17T11:44:59;100777.69;;;20.59;51.18
63204;BME280;49297;43.210;27.914;2023-05-17T11:47:25;100771.47;;;20.59;51.50
63204;BME280;49297;43.210;27.914;2023-05-17T11:49:52;100764.06;;;20.61;51.07
63204;BME280;49297;43.210;27.914;2023-05-17T11:52:20;100760.34;;;20.62;51.20
63204;BME280;49297;43.210;27.914;2023-05-17T11:54:46;100762.16;;;20.54;51.68
63204;BME280;49297;43.210;27.914;2023-05-17T11:57:12;100753.06;;;20.56;51.92
63204;BME280;49297;43.210;27.914;2023-05-17T11:59:41;100751.00;;;20.58;52.26
63204;BME280;49297;43.210;27.914;2023-05-17T12:02:09;100766.31;;;20.57;52.83
63204;BME280;49297;43.210;27.914;2023-05-17T12:04:36;100764.84;;;20.54;53.52
63204;BME280;49297;43.210;27.914;2023-05-17T12:07:03;100773.09;;;20.46;53.70
63204;BME280;49297;43.210;27.914;2023-05-17T12:09:29;100771.59;;;20.37;54.01
63204;BME280;49297;43.210;27.914;2023-05-17T12:11:55;100773.00;;;20.26;54.56
63204;BME280;49297;43.210;27.914;2023-05-17T12:14:23;100766.53;;;20.14;55.43
63204;BME280;49297;43.210;27.914;2023-05-17T12:16:53;100762.84;;;20.15;55.44
63204;BME280;49297;43.210;27.914;2023-05-17T12:19:22;100763.66;;;20.15;55.20
63204;BME280;49297;43.210;27.914;2023-05-17T12:21:51;100764.81;;;20.00;55.53
63204;BME280;49297;43.210;27.914;2023-05-17T12:24:17;100765.81;;;19.92;56.52
63204;BME280;49297;43.210;27.914;2023-05-17T12:26:43;100760.81;;;19.89;56.53
63204;BME280;49297;43.210;27.914;2023-05-17T12:29:09;100765.19;;;19.90;56.59
63204;BME280;49297;43.210;27.914;2023-05-17T12:31:45;100755.44;;;19.82;56.81
63204;BME280;49297;43.210;27.914;2023-05-17T12:34:13;100753.13;;;19.79;57.25
63204;BME280;49297;43.210;27.914;2023-05-17T12:36:43;100769.28;;;19.86;56.92
63204;BME280;49297;43.210;27.914;2023-05-17T12:39:13;100776.69;;;19.84;57.33
63204;BME280;49297;43.210;27.914;2023-05-17T12:41:40;100751.50;;;19.85;57.26
63204;BME280;49297;43.210;27.914;2023-05-17T12:44:07;100754.44;;;19.90;57.60
63204;BME280;49297;43.210;27.914;2023-05-17T12:46:33;100755.06;;;19.92;57.30
63204;BME280;49297;43.210;27.914;2023-05-17T12:49:06;100757.56;;;19.93;57.66
63204;BME280;49297;43.210;27.914;2023-05-17T12:51:47;100754.25;;;19.91;57.70
63204;BME280;49297;43.210;27.914;2023-05-17T12:56:49;100744.75;;;19.67;59.49
63204;BME280;49297;43.210;27.914;2023-05-17T12:59:16;100740.19;;;19.61;60.55
63204;BME280;49297;43.210;27.914;2023-05-17T13:01:43;100740.19;;;19.61;60.73
63204;BME280;49297;43.210;27.914;2023-05-17T13:04:09;100744.50;;;19.55;61.15